createdAt,value
2023-08-17T00:02:08.741Z,100014.13
2023-08-17T00:04:36.437Z,100009.38
2023-08-17T00:07:03.915Z,100008.34
2023-08-17T00:09:31.277Z,100009.78
2023-08-17T00:11:58.921Z,100001.44
2023-08-17T00:14:26.376Z,100005.09
2023-08-17T00:16:53.798Z,100006.75
2023-08-17T00:19:21.479Z,100003.94
2023-08-17T00:21:48.872Z,100000.75
2023-08-17T00:24:16.290Z,100005.63
2023-08-17T00:26:43.930Z,99993.69
2023-08-17T00:29:11.588Z,99995.47
2023-08-17T00:31:38.977Z,99992.75
2023-08-17T00:34:06.615Z,99989.94
2023-08-17T00:36:34.005Z,99986.44
2023-08-17T00:39:02.181Z,99980.94
2023-08-17T00:41:29.887Z,99981.41
2023-08-17T00:43:57.749Z,99972.19
2023-08-17T00:46:25.973Z,99974.50
2023-08-17T00:48:54.097Z,99976.88
2023-08-17T00:51:24.496Z,99987.97
2023-08-17T00:53:52.277Z,99987.75
2023-08-17T00:56:20.148Z,99981.56
2023-08-17T00:58:47.544Z,99991.72
2023-08-17T01:01:15.087Z,99989.97
2023-08-17T01:03:43.026Z,100001.22
2023-08-17T01:06:10.777Z,100000.09
2023-08-17T01:08:38.223Z,99999.16
2023-08-17T01:11:18.868Z,100001.97
2023-08-17T01:13:50.504Z,100005.31
2023-08-17T01:16:28.939Z,100005.16
2023-08-17T01:18:56.940Z,100009.16
2023-08-17T01:21:25.662Z,100010.37
2023-08-17T01:23:53.067Z,100010.66
2023-08-17T01:26:20.484Z,100007.94
2023-08-17T01:28:48.304Z,100020.28
2023-08-17T01:31:21.827Z,100015.03
2023-08-17T01:33:53.091Z,100018.25
2023-08-17T01:36:23.945Z,100007.31
2023-08-17T01:38:52.478Z,100005.22
2023-08-17T01:41:20.995Z,100002.87
2023-08-17T01:43:49.087Z,100007.66
2023-08-17T01:46:17.374Z,100004.38
2023-08-17T01:48:45.540Z,99998.38
2023-08-17T01:51:18.265Z,99991.56
2023-08-17T01:53:46.111Z,99990.94
2023-08-17T01:56:13.498Z,99988.34
2023-08-17T01:58:40.859Z,99994.47
2023-08-17T02:01:08.635Z,100000.22
2023-08-17T02:03:36.366Z,99994.69
2023-08-17T02:06:03.847Z,99997.22
2023-08-17T02:08:31.444Z,99997.97
2023-08-17T02:10:59.097Z,99998.88
2023-08-17T02:13:28.416Z,100002.53
2023-08-17T02:16:07.652Z,99999.81
2023-08-17T02:18:36.037Z,100004.94
2023-08-17T02:21:03.931Z,100004.75
2023-08-17T02:23:31.313Z,99994.66
2023-08-17T02:25:58.716Z,100000.06
2023-08-17T02:28:26.381Z,99997.50
2023-08-17T02:30:59.869Z,100005.16
2023-08-17T02:33:28.653Z,100004.31
2023-08-17T02:35:56.091Z,100003.94
2023-08-17T02:38:23.913Z,99997.25
2023-08-17T02:40:51.577Z,100003.03
2023-08-17T02:43:19.190Z,99994.72
2023-08-17T02:45:46.628Z,100002.13
2023-08-17T02:48:14.299Z,100004.19
2023-08-17T02:50:42.104Z,99997.81
2023-08-17T02:53:09.747Z,99990.12
2023-08-17T02:55:37.699Z,99986.59
2023-08-17T02:58:05.140Z,99991.47
2023-08-17T03:00:32.551Z,99989.38
2023-08-17T03:03:00.416Z,99985.50
2023-08-17T03:05:27.801Z,99983.78
2023-08-17T03:07:55.837Z,99976.53
2023-08-17T03:10:23.914Z,99981.69
2023-08-17T03:12:52.029Z,99983.97
2023-08-17T03:15:19.523Z,99992.81
2023-08-17T03:17:47.428Z,99984.41
2023-08-17T03:20:14.971Z,99983.84
2023-08-17T03:22:42.462Z,99996.41
2023-08-17T03:25:10.221Z,99991.31
2023-08-17T03:27:37.975Z,99991.66
2023-08-17T03:30:06.379Z,99983.47
2023-08-17T03:32:34.072Z,99985.09
2023-08-17T03:35:01.504Z,99973.03
2023-08-17T03:37:29.092Z,99974.59
2023-08-17T03:39:57.003Z,99978.81
2023-08-17T03:42:24.462Z,99984.63
2023-08-17T03:44:52.403Z,99980.81
2023-08-17T03:47:20.252Z,99982.09
2023-08-17T03:49:48.224Z,99977.81
2023-08-17T03:52:15.628Z,99981.41
2023-08-17T03:54:43.357Z,99971.44
2023-08-17T03:57:10.773Z,99980.25
2023-08-17T03:59:38.161Z,99978.25
2023-08-17T04:02:05.838Z,99972.66
2023-08-17T04:04:33.559Z,99980.19
2023-08-17T04:07:01.107Z,99978.47
2023-08-17T04:09:28.518Z,99988.59
2023-08-17T04:11:58.348Z,99992.09
2023-08-17T04:14:25.738Z,99985.34
2023-08-17T04:16:53.338Z,99992.53
2023-08-17T04:19:21.046Z,99992.00
2023-08-17T04:21:48.436Z,99992.94
2023-08-17T04:24:16.285Z,100001.03
2023-08-17T04:26:44.004Z,99994.31
2023-08-17T04:29:11.402Z,99994.31
2023-08-17T04:31:39.979Z,99987.19
2023-08-17T04:34:07.755Z,99994.91
2023-08-17T04:36:35.229Z,99996.13
2023-08-17T04:39:02.999Z,99984.03
2023-08-17T04:41:30.663Z,99985.34
2023-08-17T04:43:58.322Z,99984.59
2023-08-17T04:46:25.774Z,99984.66
2023-08-17T04:48:53.666Z,99992.41
2023-08-17T04:51:22.054Z,99987.72
2023-08-17T04:53:49.626Z,99994.09
2023-08-17T04:56:17.539Z,99988.31
2023-08-17T04:58:45.054Z,100000.88
2023-08-17T05:01:14.280Z,100002.22
2023-08-17T05:03:42.208Z,100007.09
2023-08-17T05:06:09.841Z,100001.28
2023-08-17T05:08:37.268Z,100006.41
2023-08-17T05:11:05.011Z,100001.28
2023-08-17T05:13:32.502Z,99998.09
2023-08-17T05:16:00.283Z,100001.12
2023-08-17T05:18:28.426Z,100003.44
2023-08-17T05:20:56.006Z,99989.59
2023-08-17T05:23:23.455Z,99996.62
2023-08-17T05:25:51.529Z,99986.84
2023-08-17T05:28:18.958Z,99979.28
2023-08-17T05:30:46.464Z,99990.56
2023-08-17T05:33:14.926Z,99978.13
2023-08-17T05:35:43.567Z,99975.12
2023-08-17T05:38:11.022Z,99988.78
2023-08-17T05:40:38.668Z,99978.97
2023-08-17T05:43:06.128Z,99977.66
2023-08-17T05:45:37.853Z,99983.94
2023-08-17T05:48:07.799Z,99984.19
2023-08-17T05:50:35.776Z,99983.38
2023-08-17T05:53:03.223Z,99980.91
2023-08-17T05:55:30.865Z,99982.28
2023-08-17T05:57:58.267Z,99981.19
2023-08-17T06:00:25.683Z,99980.66
2023-08-17T06:02:53.433Z,99985.56
2023-08-17T06:05:21.041Z,99980.09
2023-08-17T06:07:48.442Z,99979.78
2023-08-17T06:10:16.070Z,99976.53
2023-08-17T06:12:43.488Z,99970.72
2023-08-17T06:15:11.048Z,99980.00
2023-08-17T06:17:38.784Z,99974.44
2023-08-17T06:20:08.294Z,99972.03
2023-08-17T06:22:35.687Z,99968.25
2023-08-17T06:25:04.513Z,99958.69
2023-08-17T06:27:31.997Z,99959.75
2023-08-17T06:29:59.409Z,99954.16
2023-08-17T06:32:27.114Z,99960.25
2023-08-17T06:34:55.248Z,99957.78
2023-08-17T06:37:22.634Z,99962.72
2023-08-17T06:39:50.332Z,99956.41
2023-08-17T06:42:17.711Z,99963.13
2023-08-17T06:44:45.141Z,99950.50
2023-08-17T06:47:12.867Z,99952.97
2023-08-17T06:49:40.249Z,99956.37
2023-08-17T06:52:07.711Z,99955.59
2023-08-17T06:54:35.392Z,99952.63
2023-08-17T06:57:02.820Z,99947.91
2023-08-17T06:59:30.252Z,99952.44
2023-08-17T07:01:58.196Z,99956.03
2023-08-17T07:04:25.801Z,99952.31
2023-08-17T07:06:53.221Z,99940.41
2023-08-17T07:09:21.806Z,99933.31
2023-08-17T07:11:49.234Z,99962.78
2023-08-17T07:14:16.609Z,99970.09
2023-08-17T07:16:44.293Z,99972.56
2023-08-17T07:19:12.590Z,99969.44
2023-08-17T07:21:40.144Z,99970.00
2023-08-17T07:24:15.151Z,99970.66
2023-08-17T07:26:42.550Z,99969.97
2023-08-17T07:29:10.432Z,99965.56
2023-08-17T07:31:38.915Z,99969.56
2023-08-17T07:34:06.840Z,99962.97
2023-08-17T07:36:34.802Z,99962.84
2023-08-17T07:39:02.280Z,99959.41
2023-08-17T07:41:29.701Z,99978.72
2023-08-17T07:43:57.397Z,99975.09
2023-08-17T07:46:24.804Z,99968.66
2023-08-17T07:48:52.213Z,99976.34
2023-08-17T07:51:19.862Z,99964.41
2023-08-17T07:53:47.272Z,99969.06
2023-08-17T07:56:14.993Z,99964.81
2023-08-17T07:58:42.641Z,99968.09
2023-08-17T08:01:10.081Z,99972.03
2023-08-17T08:03:37.776Z,99980.78
2023-08-17T08:06:05.190Z,99976.31
2023-08-17T08:08:32.612Z,99975.63
2023-08-17T08:11:00.241Z,99970.97
2023-08-17T08:13:27.644Z,99975.75
2023-08-17T08:15:55.155Z,99971.41
2023-08-17T08:18:22.872Z,99972.09
2023-08-17T08:20:50.335Z,99970.13
2023-08-17T08:23:17.896Z,99968.78
2023-08-17T08:25:45.771Z,99968.41
2023-08-17T08:28:13.179Z,99968.97
2023-08-17T08:30:40.594Z,99965.41
2023-08-17T08:33:08.293Z,99971.66
2023-08-17T08:35:35.739Z,99969.81
2023-08-17T08:38:03.238Z,99978.19
2023-08-17T08:40:31.073Z,99966.06
2023-08-17T08:42:58.895Z,99955.66
2023-08-17T08:45:26.378Z,99953.72
2023-08-17T08:47:54.167Z,99945.56
2023-08-17T08:50:23.159Z,99947.47
2023-08-17T08:53:00.922Z,99962.44
2023-08-17T08:55:30.352Z,99941.38
2023-08-17T08:57:57.802Z,99950.63
2023-08-17T09:00:25.912Z,99942.91
2023-08-17T09:02:53.652Z,99939.63
2023-08-17T09:05:21.151Z,99944.50
2023-08-17T09:07:49.693Z,99953.50
2023-08-17T09:10:17.961Z,99954.06
2023-08-17T09:12:49.114Z,99954.94
2023-08-17T09:15:17.476Z,99952.28
2023-08-17T09:17:45.651Z,99953.38
2023-08-17T09:20:13.243Z,99953.38
2023-08-17T09:22:44.647Z,99944.19
2023-08-17T09:25:12.051Z,99935.03
2023-08-17T09:27:39.600Z,99936.97
2023-08-17T09:30:09.800Z,99940.31
2023-08-17T09:32:37.319Z,99938.31
2023-08-17T09:35:06.550Z,99936.06
2023-08-17T09:37:34.389Z,99939.06
2023-08-17T09:40:02.043Z,99937.81
2023-08-17T09:42:29.707Z,99935.25
2023-08-17T09:44:57.394Z,99934.44
2023-08-17T09:47:24.878Z,99927.09
2023-08-17T09:49:55.700Z,99928.59
2023-08-17T09:52:25.282Z,99919.97
2023-08-17T09:54:53.504Z,99911.69
2023-08-17T09:57:23.175Z,99912.56
2023-08-17T09:59:54.812Z,99905.28
2023-08-17T10:02:24.842Z,99898.34
2023-08-17T10:04:53.693Z,99902.22
2023-08-17T10:07:21.950Z,99901.72
2023-08-17T10:09:55.402Z,99897.97
2023-08-17T10:12:24.588Z,99890.97
2023-08-17T10:14:59.935Z,99883.53
2023-08-17T10:17:28.283Z,99888.06
2023-08-17T10:19:58.029Z,99886.59
2023-08-17T10:22:44.097Z,99884.06
2023-08-17T10:25:13.334Z,99889.34
2023-08-17T10:27:43.907Z,99892.84
2023-08-17T10:30:11.896Z,99876.34
2023-08-17T10:32:39.999Z,99877.81
2023-08-17T10:35:07.788Z,99876.78
2023-08-17T10:37:35.809Z,99866.19
2023-08-17T10:40:03.596Z,99870.56
2023-08-17T10:42:36.194Z,99873.50
2023-08-17T10:45:32.256Z,99880.38
2023-08-17T10:48:12.010Z,99883.19
2023-08-17T10:53:11.564Z,99896.72
2023-08-17T10:55:43.298Z,99885.03
2023-08-17T11:00:43.570Z,99893.44
2023-08-17T11:03:18.294Z,99890.91
2023-08-17T11:05:51.229Z,99902.16
2023-08-17T11:08:22.453Z,99893.53
2023-08-17T11:11:03.637Z,99890.75
2023-08-17T11:13:35.751Z,99896.97
2023-08-17T11:16:04.150Z,99893.97
2023-08-17T11:18:32.965Z,99901.72
2023-08-17T11:21:01.411Z,99913.84
2023-08-17T11:23:30.506Z,99896.09
2023-08-17T11:25:58.191Z,99900.97
2023-08-17T11:28:25.773Z,99901.63
2023-08-17T11:30:59.929Z,99899.03
2023-08-17T11:33:28.108Z,99901.06
2023-08-17T11:35:56.477Z,99900.19
2023-08-17T11:38:23.980Z,99901.09
2023-08-17T11:40:51.632Z,99904.75
2023-08-17T11:43:22.190Z,99894.91
2023-08-17T11:45:49.893Z,99891.47
2023-08-17T11:48:19.327Z,99895.88
2023-08-17T11:50:46.792Z,99895.00
2023-08-17T11:53:14.169Z,99900.72
2023-08-17T11:55:42.198Z,99890.78
2023-08-17T11:58:10.298Z,99903.66
2023-08-17T12:00:42.404Z,99893.13
2023-08-17T12:03:10.196Z,99897.81
2023-08-17T12:05:37.656Z,99889.84
2023-08-17T12:08:05.096Z,99900.25
2023-08-17T12:10:35.909Z,99895.84
2023-08-17T12:13:03.294Z,99885.13
2023-08-17T12:15:36.626Z,99876.72
2023-08-17T12:18:05.099Z,99876.91
2023-08-17T12:20:38.149Z,99866.28
2023-08-17T12:23:05.841Z,99874.78
2023-08-17T12:25:33.238Z,99866.50
2023-08-17T12:28:01.864Z,99865.59
2023-08-17T12:30:32.487Z,99864.78
2023-08-17T12:33:00.306Z,99862.19
2023-08-17T12:35:27.771Z,99856.75
2023-08-17T12:37:55.507Z,99854.22
2023-08-17T12:40:23.016Z,99851.78
2023-08-17T12:42:50.506Z,99848.34
2023-08-17T12:45:18.235Z,99841.53
2023-08-17T12:47:45.649Z,99837.38
2023-08-17T12:50:13.149Z,99846.81
2023-08-17T12:52:40.822Z,99838.56
2023-08-17T12:55:08.571Z,99837.25
2023-08-17T12:57:36.686Z,99835.28
2023-08-17T13:00:04.840Z,99829.12
2023-08-17T13:02:32.282Z,99821.00
2023-08-17T13:04:59.734Z,99810.78
2023-08-17T13:07:27.412Z,99812.72
2023-08-17T13:09:54.799Z,99809.94
2023-08-17T13:12:22.224Z,99816.06
2023-08-17T13:14:49.902Z,99807.53
2023-08-17T13:17:18.456Z,99809.72
2023-08-17T13:19:45.849Z,99807.72
2023-08-17T13:22:13.539Z,99810.91
2023-08-17T13:24:41.255Z,99803.47
2023-08-17T13:27:08.930Z,99797.53
2023-08-17T13:29:36.770Z,99807.59
2023-08-17T13:32:04.218Z,99804.16
2023-08-17T13:34:32.796Z,99811.09
2023-08-17T13:37:00.442Z,99810.00
2023-08-17T13:39:27.867Z,99809.44
2023-08-17T13:41:55.273Z,99810.87
2023-08-17T13:44:23.001Z,99809.16
2023-08-17T13:46:50.391Z,99807.22
2023-08-17T13:49:17.743Z,99798.19
2023-08-17T13:51:45.457Z,99805.25
2023-08-17T13:54:12.853Z,99798.50
2023-08-17T13:56:40.303Z,99789.28
2023-08-17T13:59:07.930Z,99790.81
2023-08-17T14:01:35.448Z,99786.63
2023-08-17T14:04:04.929Z,99790.16
2023-08-17T14:06:33.526Z,99785.88
2023-08-17T14:09:01.730Z,99804.72
2023-08-17T14:11:29.426Z,99802.72
2023-08-17T14:13:56.860Z,99809.13
2023-08-17T14:16:24.315Z,99806.16
2023-08-17T14:18:51.961Z,99803.16
2023-08-17T14:21:19.393Z,99811.66
2023-08-17T14:23:47.739Z,99810.72
2023-08-17T14:26:15.410Z,99798.62
2023-08-17T14:28:44.946Z,99799.28
2023-08-17T14:31:18.709Z,99803.37
2023-08-17T14:33:50.488Z,99794.03
2023-08-17T14:36:20.830Z,99797.28
2023-08-17T14:38:48.816Z,99785.44
2023-08-17T14:41:16.229Z,99782.38
2023-08-17T14:43:43.624Z,99789.03
2023-08-17T14:48:41.594Z,99791.16
2023-08-17T14:51:09.033Z,99792.66
2023-08-17T14:53:40.016Z,99787.19
2023-08-17T14:56:07.782Z,99788.81
2023-08-17T14:58:35.204Z,99780.44
2023-08-17T15:01:03.083Z,99780.97
2023-08-17T15:03:30.568Z,99779.56
2023-08-17T15:05:58.023Z,99781.03
2023-08-17T15:08:25.641Z,99774.34
2023-08-17T15:10:53.063Z,99775.06
2023-08-17T15:13:21.273Z,99774.84
2023-08-17T15:15:48.982Z,99771.66
2023-08-17T15:18:16.468Z,99771.78
2023-08-17T15:20:43.988Z,99766.84
2023-08-17T15:23:11.722Z,99766.47
2023-08-17T15:25:39.138Z,99772.47
2023-08-17T15:28:06.478Z,99761.72
2023-08-17T15:30:34.145Z,99762.97
2023-08-17T15:33:01.522Z,99761.94
2023-08-17T15:35:28.914Z,99767.69
2023-08-17T15:37:56.567Z,99773.69
2023-08-17T15:40:24.017Z,99767.41
2023-08-17T15:42:51.545Z,99759.34
2023-08-17T15:45:19.225Z,99767.09
2023-08-17T15:47:46.647Z,99776.44
2023-08-17T15:50:14.078Z,99766.34
2023-08-17T15:52:41.785Z,99767.84
2023-08-17T15:55:09.309Z,99762.84
2023-08-17T15:57:37.759Z,99768.22
2023-08-17T16:00:05.775Z,99767.09
2023-08-17T16:02:36.385Z,99770.75
2023-08-17T16:05:04.238Z,99772.37
2023-08-17T16:07:31.647Z,99764.72
2023-08-17T16:09:59.051Z,99767.84
2023-08-17T16:12:26.759Z,99783.16
2023-08-17T16:14:54.212Z,99802.37
2023-08-17T16:17:21.596Z,99801.03
2023-08-17T16:19:49.267Z,99790.69
2023-08-17T16:22:17.615Z,99778.38
2023-08-17T16:24:45.175Z,99783.84
2023-08-17T16:27:12.862Z,99782.66
2023-08-17T16:29:40.229Z,99783.03
2023-08-17T16:32:09.634Z,99780.47
2023-08-17T16:34:37.686Z,99790.78
2023-08-17T16:37:05.203Z,99787.44
2023-08-17T16:39:32.583Z,99790.94
2023-08-17T16:42:00.255Z,99797.44
2023-08-17T16:44:28.321Z,99786.75
2023-08-17T16:46:56.151Z,99789.75
2023-08-17T16:49:29.782Z,99786.16
2023-08-17T16:51:59.163Z,99790.13
2023-08-17T16:54:26.870Z,99800.19
2023-08-17T16:56:54.546Z,99796.22
2023-08-17T16:59:22.092Z,99784.00
2023-08-17T17:01:49.758Z,99789.63
2023-08-17T17:04:18.352Z,99787.31
2023-08-17T17:06:46.049Z,99786.78
2023-08-17T17:09:13.746Z,99799.25
2023-08-17T17:11:41.181Z,99795.03
2023-08-17T17:14:08.587Z,99797.59
2023-08-17T17:16:36.270Z,99803.66
2023-08-17T17:19:03.766Z,99799.03
2023-08-17T17:21:31.136Z,99797.91
2023-08-17T17:23:58.767Z,99798.28
2023-08-17T17:26:26.226Z,99803.69
2023-08-17T17:28:53.726Z,99809.63
2023-08-17T17:31:21.859Z,99811.16
2023-08-17T17:33:49.276Z,99817.25
2023-08-17T17:36:16.678Z,99815.03
2023-08-17T17:38:44.320Z,99819.63
2023-08-17T17:41:11.758Z,99820.69
2023-08-17T17:43:39.175Z,99823.22
2023-08-17T17:46:06.849Z,99821.75
2023-08-17T17:48:34.325Z,99820.19
2023-08-17T17:51:01.750Z,99818.56
2023-08-17T17:53:31.307Z,99825.41
2023-08-17T17:55:58.719Z,99814.94
2023-08-17T17:58:26.142Z,99819.28
2023-08-17T18:00:54.700Z,99821.31
2023-08-17T18:03:22.497Z,99815.97
2023-08-17T18:05:49.962Z,99819.53
2023-08-17T18:08:17.365Z,99825.63
2023-08-17T18:10:45.158Z,99821.69
2023-08-17T18:13:12.566Z,99816.63
2023-08-17T18:15:40.214Z,99818.56
2023-08-17T18:18:08.469Z,99827.56
2023-08-17T18:20:36.050Z,99827.72
2023-08-17T18:23:03.528Z,99830.94
2023-08-17T18:25:31.190Z,99832.78
2023-08-17T18:27:58.614Z,99836.34
2023-08-17T18:30:26.030Z,99832.75
2023-08-17T18:32:53.745Z,99836.53
2023-08-17T18:35:22.215Z,99840.13
2023-08-17T18:37:49.782Z,99839.06
2023-08-17T18:40:20.841Z,99845.34
2023-08-17T18:42:49.636Z,99852.97
2023-08-17T18:45:20.390Z,99848.37
2023-08-17T18:47:48.069Z,99856.56
2023-08-17T18:50:16.027Z,99853.84
2023-08-17T18:52:43.716Z,99862.84
2023-08-17T18:55:14.032Z,99859.03
2023-08-17T18:57:41.609Z,99857.41
2023-08-17T19:00:12.518Z,99856.37
2023-08-17T19:02:40.482Z,99854.75
2023-08-17T19:05:10.975Z,99864.78
2023-08-17T19:07:38.651Z,99869.97
2023-08-17T19:10:06.688Z,99859.56
2023-08-17T19:12:34.161Z,99857.69
2023-08-17T19:15:01.836Z,99859.31
2023-08-17T19:17:29.957Z,99868.53
2023-08-17T19:19:57.645Z,99854.38
2023-08-17T19:22:25.318Z,99868.59
2023-08-17T19:24:52.810Z,99865.06
2023-08-17T19:27:20.290Z,99863.41
2023-08-17T19:29:48.153Z,99863.44
2023-08-17T19:32:15.583Z,99863.97
2023-08-17T19:34:43.027Z,99859.34
2023-08-17T19:37:10.679Z,99861.53
2023-08-17T19:39:38.050Z,99855.78
2023-08-17T19:42:05.659Z,99863.44
2023-08-17T19:44:33.605Z,99860.19
2023-08-17T19:47:01.022Z,99865.34
2023-08-17T19:49:28.535Z,99863.75
2023-08-17T19:51:56.206Z,99863.72
2023-08-17T19:54:23.634Z,99862.91
2023-08-17T19:56:51.051Z,99864.53
2023-08-17T19:59:18.726Z,99865.03
2023-08-17T20:01:47.591Z,99862.34
2023-08-17T20:04:15.250Z,99867.78
2023-08-17T20:06:42.914Z,99865.63
2023-08-17T20:09:10.950Z,99867.78
2023-08-17T20:11:38.610Z,99871.59
2023-08-17T20:14:05.988Z,99864.50
2023-08-17T20:16:33.500Z,99867.78
2023-08-17T20:19:01.214Z,99867.09
2023-08-17T20:21:28.874Z,99868.50
2023-08-17T20:23:57.036Z,99871.13
2023-08-17T20:26:24.959Z,99869.81
2023-08-17T20:28:52.535Z,99872.00
2023-08-17T20:31:20.038Z,99870.19
2023-08-17T20:33:47.772Z,99866.59
2023-08-17T20:36:15.197Z,99872.63
2023-08-17T20:38:43.167Z,99874.31
2023-08-17T20:41:10.817Z,99877.78
2023-08-17T20:43:38.209Z,99877.50
2023-08-17T20:46:06.318Z,99879.37
2023-08-17T20:48:34.499Z,99875.31
2023-08-17T20:51:02.452Z,99872.09
2023-08-17T20:53:29.872Z,99869.81
2023-08-17T20:55:58.293Z,99870.47
2023-08-17T20:58:25.721Z,99869.94
2023-08-17T21:00:53.613Z,99881.56
2023-08-17T21:03:21.371Z,99877.28
2023-08-17T21:05:48.830Z,99875.28
2023-08-17T21:08:16.269Z,99880.72
2023-08-17T21:10:45.845Z,99878.56
2023-08-17T21:13:13.259Z,99880.25
2023-08-17T21:15:40.681Z,99882.09
2023-08-17T21:18:08.456Z,99876.09
2023-08-17T21:20:35.891Z,99879.09
2023-08-17T21:23:03.348Z,99881.84
2023-08-17T21:25:30.996Z,99884.00
2023-08-17T21:27:58.413Z,99890.50
2023-08-17T21:30:26.701Z,99891.16
2023-08-17T21:32:54.514Z,99891.94
2023-08-17T21:35:21.987Z,99890.81
2023-08-17T21:37:49.393Z,99890.00
2023-08-17T21:40:17.046Z,99886.84
2023-08-17T21:42:44.513Z,99897.62
2023-08-17T21:45:11.892Z,99890.03
2023-08-17T21:47:39.556Z,99892.75
2023-08-17T21:50:07.496Z,99891.66
2023-08-17T21:52:35.387Z,99888.19
2023-08-17T21:55:03.157Z,99890.38
2023-08-17T21:57:30.908Z,99886.22
2023-08-17T21:59:58.512Z,99886.81
2023-08-17T22:02:26.203Z,99883.44
2023-08-17T22:04:53.866Z,99885.13
2023-08-17T22:07:21.255Z,99881.84
2023-08-17T22:09:48.661Z,99884.78
2023-08-17T22:12:16.295Z,99882.94
2023-08-17T22:14:43.677Z,99882.38
2023-08-17T22:17:11.292Z,99884.47
2023-08-17T22:19:38.990Z,99881.25
2023-08-17T22:22:06.360Z,99880.22
2023-08-17T22:24:45.277Z,99883.22
2023-08-17T22:27:18.399Z,99883.97
2023-08-17T22:29:45.868Z,99878.41
2023-08-17T22:32:13.304Z,99881.75
2023-08-17T22:34:41.007Z,99882.31
2023-08-17T22:37:09.368Z,99882.28
2023-08-17T22:39:36.963Z,99886.66
2023-08-17T22:42:04.825Z,99876.59
2023-08-17T22:44:32.285Z,99875.53
2023-08-17T22:46:59.669Z,99880.75
2023-08-17T22:49:27.520Z,99879.59
2023-08-17T22:51:54.898Z,99883.41
2023-08-17T22:54:22.394Z,99875.31
2023-08-17T22:56:50.172Z,99885.22
2023-08-17T22:59:18.065Z,99880.22
2023-08-17T23:01:45.549Z,99876.91
2023-08-17T23:04:13.174Z,99874.66
2023-08-17T23:06:40.517Z,99880.72
2023-08-17T23:09:07.872Z,99873.78
2023-08-17T23:11:35.513Z,99882.34
2023-08-17T23:14:02.904Z,99876.47
2023-08-17T23:16:30.392Z,99891.19
2023-08-17T23:18:59.035Z,99882.56
2023-08-17T23:21:26.519Z,99881.75
2023-08-17T23:23:54.257Z,99872.97
2023-08-17T23:26:22.303Z,99878.19
2023-08-17T23:28:49.729Z,99881.63
2023-08-17T23:31:17.543Z,99883.16
2023-08-17T23:33:45.193Z,99880.22
2023-08-17T23:36:12.552Z,99881.22
2023-08-17T23:38:40.215Z,99885.66
2023-08-17T23:41:07.875Z,99881.63
2023-08-17T23:43:35.306Z,99884.22
2023-08-17T23:46:02.673Z,99881.16
2023-08-17T23:48:30.446Z,99880.28
2023-08-17T23:50:57.823Z,99883.19
2023-08-17T23:53:25.251Z,99888.34
2023-08-17T23:55:53.013Z,99881.41
2023-08-17T23:58:20.495Z,99880.84
